Terminal Aerodrome Forecast
Issued by NWS Pendleton, OR

Home | Current Version | Previous Version | Text Only | Print | Product List | Glossary On
Versions: 1 2 3 4 5 6 7 8 9 10 11 12 13 14 15 16 17
000
FTUS46 KPDT 252300
TAFPDT
TAF
KPDT 252320Z 2600/2624 23006KT P6SM SCT060
     FM260200 VRB04KT P6SM SCT100
     FM261000 VRB04KT P6SM SCT008
     FM261400 VRB04KT 4SM BR SCT008 OVC015
     FM262000 30005KT P6SM SCT200=

USA.gov is the U.S. government's official web portal to all federal, state and local government web resources and services.